createdAt,value
2018-08-24T00:01:48.934Z,4.00
2018-08-24T00:04:16.430Z,3.13
2018-08-24T00:06:43.888Z,2.60
2018-08-24T00:09:13.981Z,2.87
2018-08-24T00:11:41.628Z,2.87
2018-08-24T00:14:10.144Z,2.80
2018-08-24T00:16:38.748Z,2.77
2018-08-24T00:19:14.906Z,2.50
2018-08-24T00:21:42.968Z,3.20
2018-08-24T00:24:11.246Z,3.23
2018-08-24T00:26:38.724Z,2.97
2018-08-24T00:29:06.868Z,2.47
2018-08-24T00:31:35.021Z,2.80
2018-08-24T00:34:02.682Z,2.60
2018-08-24T00:36:30.245Z,3.70
2018-08-24T00:38:58.127Z,2.80
2018-08-24T00:41:25.766Z,2.53
2018-08-24T00:43:53.270Z,2.47
2018-08-24T00:46:21.610Z,2.50
2018-08-24T00:48:49.657Z,2.57
2018-08-24T00:51:17.178Z,3.03
2018-08-24T00:53:44.690Z,2.60
2018-08-24T00:56:12.456Z,2.63
2018-08-24T00:58:40.043Z,2.60
2018-08-24T01:01:08.580Z,2.43
2018-08-24T01:03:36.479Z,2.53
2018-08-24T01:06:04.092Z,2.40
2018-08-24T01:08:31.616Z,2.90
2018-08-24T01:10:59.084Z,2.70
2018-08-24T01:13:26.600Z,2.20
2018-08-24T01:15:59.054Z,2.43
2018-08-24T01:18:32.300Z,2.40
2018-08-24T01:20:59.970Z,2.50
2018-08-24T01:23:28.786Z,2.40
2018-08-24T01:25:56.379Z,2.60
2018-08-24T01:28:25.450Z,2.60
2018-08-24T01:30:53.034Z,2.60
2018-08-24T01:33:20.802Z,2.40
2018-08-24T01:35:48.321Z,2.63
2018-08-24T01:38:15.881Z,2.67
2018-08-24T01:40:43.364Z,2.50
2018-08-24T01:43:11.899Z,2.50
2018-08-24T01:45:39.386Z,2.47
2018-08-24T01:48:13.641Z,2.60
2018-08-24T01:50:41.191Z,2.43
2018-08-24T01:53:08.697Z,3.03
2018-08-24T01:55:36.203Z,2.40
2018-08-24T01:58:04.591Z,2.70
2018-08-24T02:00:32.187Z,2.80
2018-08-24T02:02:59.700Z,3.73
2018-08-24T02:05:27.211Z,2.90
2018-08-24T02:07:54.723Z,3.37
2018-08-24T02:10:27.165Z,2.50
2018-08-24T02:13:00.407Z,2.60
2018-08-24T02:15:27.968Z,2.43
2018-08-24T02:18:01.231Z,3.00
2018-08-24T02:20:34.247Z,3.07
2018-08-24T02:23:09.304Z,2.97
2018-08-24T02:25:37.726Z,2.80
2018-08-24T02:28:05.591Z,2.93
2018-08-24T02:30:33.143Z,3.57
2018-08-24T02:33:00.863Z,3.27
2018-08-24T02:35:28.321Z,2.83
2018-08-24T02:37:55.799Z,3.47
2018-08-24T02:40:23.288Z,3.10
2018-08-24T02:42:50.758Z,3.10
2018-08-24T02:45:18.762Z,3.10
2018-08-24T02:47:46.372Z,3.70
2018-08-24T02:50:14.016Z,3.30
2018-08-24T02:52:41.539Z,4.00
2018-08-24T02:55:09.047Z,3.47
2018-08-24T02:57:36.550Z,3.80
2018-08-24T03:00:04.248Z,4.33
2018-08-24T03:02:31.704Z,4.40
2018-08-24T03:04:59.291Z,3.90
2018-08-24T03:07:26.787Z,4.27
2018-08-24T03:09:54.446Z,3.80
2018-08-24T03:12:22.119Z,4.20
2018-08-24T03:14:49.912Z,4.10
2018-08-24T03:17:23.274Z,5.30
2018-08-24T03:19:50.846Z,4.93
2018-08-24T03:22:18.462Z,4.07
2018-08-24T03:24:47.014Z,4.73
2018-08-24T03:27:14.602Z,5.00
2018-08-24T03:29:42.264Z,4.77
2018-08-24T03:32:10.535Z,3.90
2018-08-24T03:34:37.975Z,4.17
2018-08-24T03:37:05.904Z,4.63
2018-08-24T03:39:33.444Z,4.50
2018-08-24T03:42:01.068Z,4.30
2018-08-24T03:44:28.555Z,4.70
2018-08-24T03:46:56.122Z,4.10
2018-08-24T03:49:24.571Z,4.90
2018-08-24T03:51:52.027Z,4.53
2018-08-24T03:54:20.370Z,4.17
2018-08-24T03:56:56.810Z,4.10
2018-08-24T03:59:24.948Z,4.37
2018-08-24T04:01:53.696Z,5.40
2018-08-24T04:04:21.222Z,5.63
2018-08-24T04:06:48.853Z,5.37
2018-08-24T04:09:16.351Z,4.63
2018-08-24T04:11:44.289Z,4.17
2018-08-24T04:14:12.111Z,4.60
2018-08-24T04:16:45.226Z,5.37
2018-08-24T04:19:17.310Z,5.17
2018-08-24T04:21:46.027Z,5.43
2018-08-24T04:24:13.559Z,4.70
2018-08-24T04:26:41.341Z,4.67
2018-08-24T04:29:08.891Z,4.53
2018-08-24T04:31:36.481Z,4.83
2018-08-24T04:34:04.700Z,5.10
2018-08-24T04:36:39.749Z,4.40
2018-08-24T04:39:08.885Z,5.33
2018-08-24T04:41:36.520Z,4.67
2018-08-24T04:44:04.521Z,4.43
2018-08-24T04:46:32.469Z,6.30
2018-08-24T04:48:59.973Z,5.03
2018-08-24T04:51:28.002Z,4.80
2018-08-24T04:53:55.623Z,5.20
2018-08-24T04:56:23.163Z,4.37
2018-08-24T04:58:50.808Z,5.00
2018-08-24T05:01:18.378Z,5.97
2018-08-24T05:03:45.899Z,5.70
2018-08-24T05:06:13.433Z,4.93
2018-08-24T05:08:40.912Z,4.33
2018-08-24T05:11:08.438Z,5.60
2018-08-24T05:13:36.283Z,4.23
2018-08-24T05:16:03.940Z,5.10
2018-08-24T05:18:31.568Z,5.33
2018-08-24T05:20:59.129Z,4.77
2018-08-24T05:23:26.606Z,4.87
2018-08-24T05:25:54.214Z,4.63
2018-08-24T05:28:21.673Z,5.03
2018-08-24T05:30:49.207Z,5.70
2018-08-24T05:33:16.740Z,7.13
2018-08-24T05:35:44.362Z,5.57
2018-08-24T05:38:11.812Z,4.93
2018-08-24T05:40:39.456Z,5.20
2018-08-24T05:43:07.068Z,4.93
2018-08-24T05:45:34.711Z,4.10
2018-08-24T05:48:02.266Z,4.77
2018-08-24T05:50:30.854Z,5.27
2018-08-24T05:52:58.590Z,4.63
2018-08-24T05:55:26.186Z,5.27
2018-08-24T05:57:53.721Z,4.50
2018-08-24T06:00:25.795Z,5.13
2018-08-24T06:02:53.374Z,4.50
2018-08-24T06:05:20.870Z,5.20
2018-08-24T06:07:48.364Z,5.47
2018-08-24T06:10:15.899Z,5.63
2018-08-24T06:12:43.461Z,3.97
2018-08-24T06:15:11.052Z,4.90
2018-08-24T06:17:44.292Z,5.80
2018-08-24T06:20:11.886Z,4.67
2018-08-24T06:22:39.663Z,3.90
2018-08-24T06:25:07.225Z,5.33
2018-08-24T06:27:34.743Z,4.83
2018-08-24T06:30:02.243Z,4.40
2018-08-24T06:32:29.921Z,3.80
2018-08-24T06:34:57.514Z,3.97
2018-08-24T06:37:25.036Z,4.07
2018-08-24T06:39:52.498Z,4.00
2018-08-24T06:42:20.881Z,4.80
2018-08-24T06:44:48.464Z,4.30
2018-08-24T06:47:15.995Z,5.33
2018-08-24T06:49:43.695Z,3.87
2018-08-24T06:52:11.216Z,3.53
2018-08-24T06:54:38.712Z,3.80
2018-08-24T06:57:06.215Z,4.43
2018-08-24T06:59:33.802Z,3.90
2018-08-24T07:02:01.323Z,3.83
2018-08-24T07:04:28.875Z,6.10
2018-08-24T07:06:56.379Z,3.77
2018-08-24T07:09:23.886Z,4.93
2018-08-24T07:11:51.401Z,4.57
2018-08-24T07:14:18.966Z,3.80
2018-08-24T07:16:46.439Z,3.60
2018-08-24T07:19:13.950Z,4.00
2018-08-24T07:21:41.500Z,4.50
2018-08-24T07:24:09.062Z,5.63
2018-08-24T07:26:36.552Z,3.90
2018-08-24T07:29:04.319Z,4.23
2018-08-24T07:31:31.809Z,3.53
2018-08-24T07:33:59.331Z,3.83
2018-08-24T07:36:26.875Z,3.40
2018-08-24T07:38:54.491Z,4.20
2018-08-24T07:41:22.116Z,4.30
2018-08-24T07:43:49.607Z,4.17
2018-08-24T07:46:17.122Z,3.70
2018-08-24T07:48:44.653Z,3.87
2018-08-24T07:51:12.164Z,3.43
2018-08-24T07:53:39.711Z,3.73
2018-08-24T07:56:07.219Z,4.13
2018-08-24T07:58:34.802Z,3.50
2018-08-24T08:01:02.357Z,4.27
2018-08-24T08:03:29.893Z,3.97
2018-08-24T08:05:57.396Z,4.03
2018-08-24T08:08:24.968Z,4.40
2018-08-24T08:10:52.517Z,3.90
2018-08-24T08:13:20.014Z,3.70
2018-08-24T08:15:48.356Z,4.07
2018-08-24T08:18:16.082Z,4.90
2018-08-24T08:20:43.532Z,4.40
2018-08-24T08:23:11.098Z,4.30
2018-08-24T08:25:38.614Z,6.80
2018-08-24T08:28:06.129Z,3.90
2018-08-24T08:30:33.667Z,3.90
2018-08-24T08:33:01.251Z,3.97
2018-08-24T08:35:28.772Z,4.10
2018-08-24T08:37:56.290Z,6.33
2018-08-24T08:40:23.795Z,3.80
2018-08-24T08:42:51.315Z,4.27
2018-08-24T08:45:18.880Z,4.97
2018-08-24T08:47:46.485Z,3.47
2018-08-24T08:50:13.994Z,4.50
2018-08-24T08:52:43.218Z,4.03
2018-08-24T08:55:10.763Z,4.00
2018-08-24T08:57:38.264Z,4.13
2018-08-24T09:00:06.252Z,3.70
2018-08-24T09:02:33.813Z,4.57
2018-08-24T09:05:01.436Z,3.97
2018-08-24T09:07:28.957Z,4.57
2018-08-24T09:09:56.478Z,3.90
2018-08-24T09:12:24.024Z,4.10
2018-08-24T09:14:51.541Z,3.60
2018-08-24T09:17:24.668Z,4.50
2018-08-24T09:19:57.790Z,4.30
2018-08-24T09:22:31.983Z,4.27
2018-08-24T09:25:04.997Z,4.97
2018-08-24T09:27:36.341Z,5.23
2018-08-24T09:30:05.067Z,5.63
2018-08-24T09:32:32.628Z,4.10
2018-08-24T09:35:00.145Z,5.10
2018-08-24T09:37:33.333Z,5.83
2018-08-24T09:40:00.932Z,4.70
2018-08-24T09:42:28.357Z,4.60
2018-08-24T09:44:55.920Z,5.50
2018-08-24T09:47:29.212Z,4.50
2018-08-24T09:50:03.936Z,4.60
2018-08-24T09:52:31.563Z,6.03
2018-08-24T09:54:59.012Z,5.23
2018-08-24T09:57:26.474Z,5.97
2018-08-24T09:59:54.004Z,4.73
2018-08-24T10:02:23.126Z,5.13
2018-08-24T10:04:56.213Z,5.40
2018-08-24T10:07:30.618Z,6.03
2018-08-24T10:09:58.149Z,5.43
2018-08-24T10:12:25.579Z,6.00
2018-08-24T10:14:53.239Z,5.77
2018-08-24T10:17:24.956Z,5.47
2018-08-24T10:19:52.473Z,6.03
2018-08-24T10:22:20.014Z,5.50
2018-08-24T10:24:47.535Z,6.03
2018-08-24T10:27:15.087Z,5.53
2018-08-24T10:29:42.853Z,6.97
2018-08-24T10:32:10.363Z,6.53
2018-08-24T10:34:37.991Z,5.93
2018-08-24T10:37:05.576Z,5.53
2018-08-24T10:39:33.063Z,5.93
2018-08-24T10:42:00.530Z,5.67
2018-08-24T10:44:28.020Z,5.67
2018-08-24T10:46:55.466Z,5.80
2018-08-24T10:49:23.156Z,5.80
2018-08-24T10:51:50.596Z,6.97
2018-08-24T10:54:18.034Z,5.30
2018-08-24T10:56:45.542Z,6.30
2018-08-24T10:59:12.996Z,6.50
2018-08-24T11:01:40.505Z,5.43
2018-08-24T11:04:08.042Z,5.50
2018-08-24T11:06:35.496Z,4.97
2018-08-24T11:09:04.368Z,5.53
2018-08-24T11:11:31.840Z,6.30
2018-08-24T11:13:59.441Z,5.77
2018-08-24T11:16:26.947Z,6.23
2018-08-24T11:18:54.506Z,5.23
2018-08-24T11:21:21.992Z,5.70
2018-08-24T11:23:49.547Z,5.53
2018-08-24T11:26:17.080Z,6.07
2018-08-24T11:28:44.600Z,5.30
2018-08-24T11:31:12.189Z,4.07
2018-08-24T11:33:39.724Z,4.23
2018-08-24T11:36:07.482Z,4.70
2018-08-24T11:38:34.820Z,4.30
2018-08-24T11:41:02.300Z,4.87
2018-08-24T11:43:29.786Z,5.67
2018-08-24T11:45:57.829Z,5.30
2018-08-24T11:48:27.276Z,5.50
2018-08-24T11:50:55.338Z,5.63
2018-08-24T11:53:22.826Z,5.53
2018-08-24T11:55:50.358Z,5.93
2018-08-24T11:58:17.905Z,5.10
2018-08-24T12:00:45.415Z,4.70
2018-08-24T12:03:12.946Z,4.93
2018-08-24T12:05:40.499Z,5.77
2018-08-24T12:08:07.990Z,5.00
2018-08-24T12:10:35.417Z,4.77
2018-08-24T12:13:02.879Z,5.63
2018-08-24T12:15:30.362Z,5.57
2018-08-24T12:17:57.869Z,6.17
2018-08-24T12:20:26.422Z,7.70
2018-08-24T12:22:53.970Z,6.10
2018-08-24T12:25:21.435Z,5.33
2018-08-24T12:27:48.882Z,6.30
2018-08-24T12:30:16.396Z,7.03
2018-08-24T12:32:43.909Z,5.60
2018-08-24T12:35:11.432Z,6.47
2018-08-24T12:37:43.573Z,5.27
2018-08-24T12:40:12.529Z,5.77
2018-08-24T12:42:40.113Z,6.10
2018-08-24T12:45:07.738Z,6.20
2018-08-24T12:47:35.217Z,6.50
2018-08-24T12:50:02.756Z,6.20
2018-08-24T12:52:30.281Z,6.67
2018-08-24T12:54:57.865Z,6.43
2018-08-24T12:57:27.789Z,5.87
2018-08-24T12:59:55.482Z,6.40
2018-08-24T13:02:23.077Z,5.90
2018-08-24T13:04:50.563Z,6.17
2018-08-24T13:07:18.073Z,6.43
2018-08-24T13:09:45.632Z,6.20
2018-08-24T13:12:13.151Z,6.47
2018-08-24T13:14:40.679Z,6.13
2018-08-24T13:17:08.175Z,6.20
2018-08-24T13:19:35.641Z,5.67
2018-08-24T13:22:03.299Z,6.00
2018-08-24T13:24:30.731Z,6.23
2018-08-24T13:26:58.325Z,6.53
2018-08-24T13:29:25.872Z,6.57
2018-08-24T13:31:53.441Z,6.37
2018-08-24T13:34:20.930Z,6.70
2018-08-24T13:36:48.490Z,6.53
2018-08-24T13:39:15.986Z,6.40
2018-08-24T13:41:43.562Z,6.07
2018-08-24T13:44:11.027Z,6.50
2018-08-24T13:46:38.495Z,6.60
2018-08-24T13:49:06.045Z,6.40
2018-08-24T13:51:33.515Z,5.90
2018-08-24T13:54:01.117Z,5.80
2018-08-24T13:56:28.622Z,5.57
2018-08-24T13:58:56.121Z,6.73
2018-08-24T14:01:24.179Z,5.87
2018-08-24T14:03:51.829Z,6.00
2018-08-24T14:06:19.372Z,5.87
2018-08-24T14:08:46.943Z,6.03
2018-08-24T14:11:14.421Z,8.13
2018-08-24T14:13:42.043Z,6.87
2018-08-24T14:16:09.557Z,6.63
2018-08-24T14:18:37.059Z,7.20
2018-08-24T14:21:04.751Z,6.03
2018-08-24T14:23:32.340Z,6.20
2018-08-24T14:25:59.904Z,6.47
2018-08-24T14:28:27.409Z,6.07
2018-08-24T14:30:54.872Z,5.50
2018-08-24T14:33:22.353Z,6.03
2018-08-24T14:35:49.892Z,6.83
2018-08-24T14:38:17.450Z,6.53
2018-08-24T14:40:44.900Z,6.17
2018-08-24T14:43:12.518Z,6.63
2018-08-24T14:45:40.150Z,6.10
2018-08-24T14:48:07.760Z,6.60
2018-08-24T14:50:35.271Z,6.63
2018-08-24T14:53:03.061Z,6.50
2018-08-24T14:55:30.612Z,7.37
2018-08-24T14:57:58.067Z,8.90
2018-08-24T15:00:26.389Z,7.87
2018-08-24T15:02:53.949Z,8.63
2018-08-24T15:05:21.603Z,8.07
2018-08-24T15:07:49.088Z,7.73
2018-08-24T15:10:16.539Z,8.53
2018-08-24T15:12:44.047Z,7.90
2018-08-24T15:15:11.578Z,8.67
2018-08-24T15:17:39.098Z,8.53
2018-08-24T15:20:07.016Z,8.63
2018-08-24T15:22:34.538Z,8.33
2018-08-24T15:25:02.094Z,8.43
2018-08-24T15:27:29.983Z,8.97
2018-08-24T15:29:57.590Z,8.50
2018-08-24T15:32:25.061Z,9.43
2018-08-24T15:34:52.556Z,8.77
2018-08-24T15:37:20.539Z,8.53
2018-08-24T15:39:48.047Z,9.60
2018-08-24T15:42:15.549Z,8.63
2018-08-24T15:44:43.374Z,7.97
2018-08-24T15:47:11.524Z,8.50
2018-08-24T15:49:39.002Z,8.43
2018-08-24T15:52:07.263Z,8.60
2018-08-24T15:54:34.763Z,7.97
2018-08-24T15:57:02.238Z,7.77
2018-08-24T15:59:31.472Z,7.83
2018-08-24T16:01:59.181Z,7.50
2018-08-24T16:04:26.818Z,6.40
2018-08-24T16:06:54.314Z,5.93
2018-08-24T16:09:23.082Z,6.43
2018-08-24T16:11:50.879Z,5.40
2018-08-24T16:14:19.641Z,5.67
2018-08-24T16:16:47.312Z,5.37
2018-08-24T16:19:14.967Z,6.37
2018-08-24T16:21:42.592Z,5.53
2018-08-24T16:24:10.249Z,5.30
2018-08-24T16:26:37.922Z,6.23
2018-08-24T16:29:05.708Z,5.80
2018-08-24T16:31:33.349Z,5.47
2018-08-24T16:34:00.854Z,5.53
2018-08-24T16:36:28.338Z,5.90
2018-08-24T16:38:55.868Z,5.43
2018-08-24T16:41:23.425Z,5.23
2018-08-24T16:43:50.960Z,6.07
2018-08-24T16:46:18.610Z,5.77
2018-08-24T16:48:46.101Z,5.43
2018-08-24T16:51:13.667Z,4.97
2018-08-24T16:53:41.186Z,6.27
2018-08-24T16:56:08.880Z,6.50
2018-08-24T16:58:36.368Z,5.47
2018-08-24T17:01:04.365Z,6.00
2018-08-24T17:03:31.873Z,5.47
2018-08-24T17:05:59.414Z,5.90
2018-08-24T17:08:27.016Z,5.60
2018-08-24T17:10:55.054Z,6.10
2018-08-24T17:13:22.712Z,5.60
2018-08-24T17:15:50.381Z,5.73
2018-08-24T17:18:17.951Z,5.63
2018-08-24T17:20:45.617Z,6.03
2018-08-24T17:23:13.246Z,5.77
2018-08-24T17:25:40.831Z,5.43
2018-08-24T17:28:08.351Z,6.00
2018-08-24T17:30:36.035Z,5.30
2018-08-24T17:33:03.597Z,5.33
2018-08-24T17:35:31.143Z,5.50
2018-08-24T17:37:58.680Z,5.67
2018-08-24T17:40:26.340Z,5.17
2018-08-24T17:42:53.933Z,5.17
2018-08-24T17:45:21.515Z,5.20
2018-08-24T17:47:49.174Z,6.20
2018-08-24T17:50:16.796Z,5.17
2018-08-24T17:52:44.401Z,4.90
2018-08-24T17:55:11.907Z,5.23
2018-08-24T17:57:39.488Z,6.07
2018-08-24T18:00:07.055Z,4.97
2018-08-24T18:02:34.536Z,5.07
2018-08-24T18:05:02.070Z,4.90
2018-08-24T18:07:29.683Z,4.93
2018-08-24T18:09:57.301Z,5.47
2018-08-24T18:12:24.939Z,5.27
2018-08-24T18:14:52.638Z,5.27
2018-08-24T18:17:20.144Z,5.63
2018-08-24T18:19:47.851Z,5.40
2018-08-24T18:22:22.287Z,5.93
2018-08-24T18:24:50.163Z,5.03
2018-08-24T18:27:18.737Z,5.50
2018-08-24T18:29:46.540Z,5.57
2018-08-24T18:32:14.154Z,6.83
2018-08-24T18:34:41.741Z,5.90
2018-08-24T18:37:09.543Z,6.03
2018-08-24T18:39:37.157Z,5.97
2018-08-24T18:42:04.911Z,6.23
2018-08-24T18:44:32.595Z,6.53
2018-08-24T18:47:00.555Z,6.03
2018-08-24T18:49:28.104Z,6.63
2018-08-24T18:51:55.620Z,6.30
2018-08-24T18:54:23.368Z,6.20
2018-08-24T18:56:50.887Z,6.43
2018-08-24T18:59:18.438Z,6.33
2018-08-24T19:01:46.064Z,7.30
2018-08-24T19:04:13.608Z,8.40
2018-08-24T19:06:41.134Z,7.30
2018-08-24T19:09:09.699Z,7.43
2018-08-24T19:11:42.789Z,7.17
2018-08-24T19:14:10.471Z,7.03
2018-08-24T19:16:37.959Z,6.33
2018-08-24T19:19:11.388Z,7.10
2018-08-24T19:21:42.990Z,7.20
2018-08-24T19:24:10.850Z,7.00
2018-08-24T19:26:38.550Z,7.47
2018-08-24T19:29:11.767Z,6.80
2018-08-24T19:31:39.481Z,6.50
2018-08-24T19:34:07.348Z,7.87
2018-08-24T19:36:34.960Z,7.10
2018-08-24T19:39:04.105Z,7.17
2018-08-24T19:41:37.341Z,6.57
2018-08-24T19:44:04.942Z,6.93
2018-08-24T19:46:32.424Z,7.73
2018-08-24T19:49:05.561Z,7.77
2018-08-24T19:51:33.230Z,6.80
2018-08-24T19:54:00.757Z,6.87
2018-08-24T19:56:28.220Z,7.17
2018-08-24T19:59:03.578Z,8.10
2018-08-24T20:01:31.832Z,7.57
2018-08-24T20:03:59.330Z,7.43
2018-08-24T20:06:32.537Z,7.67
2018-08-24T20:09:05.704Z,7.50
2018-08-24T20:11:33.377Z,7.00
2018-08-24T20:14:00.897Z,7.57
2018-08-24T20:16:34.979Z,8.67
2018-08-24T20:19:02.642Z,7.63
2018-08-24T20:21:30.183Z,7.00
2018-08-24T20:23:57.956Z,8.20
2018-08-24T20:26:25.521Z,7.50
2018-08-24T20:28:52.992Z,8.10
2018-08-24T20:31:22.576Z,8.03
2018-08-24T20:33:50.140Z,8.03
2018-08-24T20:36:17.649Z,7.57
2018-08-24T20:38:45.113Z,7.33
2018-08-24T20:41:12.704Z,7.93
2018-08-24T20:43:40.305Z,8.23
2018-08-24T20:46:07.919Z,8.17
2018-08-24T20:48:35.418Z,9.77
2018-08-24T20:51:02.916Z,8.63
2018-08-24T20:53:30.429Z,8.13
2018-08-24T20:55:58.051Z,8.50
2018-08-24T20:58:25.581Z,8.53
2018-08-24T21:00:53.099Z,8.67
2018-08-24T21:03:20.663Z,8.27
2018-08-24T21:05:48.338Z,8.93
2018-08-24T21:08:15.888Z,8.13
2018-08-24T21:10:43.451Z,9.07
2018-08-24T21:13:10.982Z,8.30
2018-08-24T21:15:38.521Z,8.80
2018-08-24T21:18:06.159Z,9.20
2018-08-24T21:20:33.698Z,8.47
2018-08-24T21:23:01.271Z,8.70
2018-08-24T21:25:28.801Z,9.07
2018-08-24T21:27:56.300Z,8.27
2018-08-24T21:30:23.875Z,9.47
2018-08-24T21:32:51.520Z,9.30
2018-08-24T21:35:19.045Z,9.60
2018-08-24T21:37:47.122Z,9.77
2018-08-24T21:40:14.649Z,9.70
2018-08-24T21:42:42.149Z,8.73
2018-08-24T21:45:10.587Z,8.70
2018-08-24T21:47:38.145Z,8.83
2018-08-24T21:50:05.943Z,7.90
2018-08-24T21:52:33.466Z,8.67
2018-08-24T21:55:01.213Z,8.47
2018-08-24T21:57:28.823Z,8.53
2018-08-24T21:59:56.341Z,9.73
2018-08-24T22:02:23.871Z,9.50
2018-08-24T22:04:51.466Z,9.80
2018-08-24T22:07:18.963Z,10.33
2018-08-24T22:09:46.575Z,10.40
2018-08-24T22:12:14.071Z,9.13
2018-08-24T22:14:42.614Z,9.73
2018-08-24T22:17:10.204Z,9.57
2018-08-24T22:19:37.730Z,9.60
2018-08-24T22:22:05.254Z,8.93
2018-08-24T22:24:32.779Z,9.10
2018-08-24T22:27:00.255Z,9.60
2018-08-24T22:29:27.811Z,8.87
2018-08-24T22:31:55.318Z,9.90
2018-08-24T22:34:23.406Z,10.87
2018-08-24T22:36:51.044Z,9.50
2018-08-24T22:39:18.657Z,9.53
2018-08-24T22:41:46.101Z,8.93
2018-08-24T22:44:13.568Z,9.30
2018-08-24T22:46:41.162Z,9.63
2018-08-24T22:49:08.660Z,10.27
2018-08-24T22:51:36.120Z,9.20
2018-08-24T22:54:03.619Z,10.40
2018-08-24T22:56:31.186Z,9.83
2018-08-24T22:58:59.678Z,9.10
2018-08-24T23:01:27.211Z,9.03
2018-08-24T23:03:54.667Z,9.70
2018-08-24T23:06:22.235Z,9.93
2018-08-24T23:08:49.729Z,9.53
2018-08-24T23:11:17.202Z,9.97
2018-08-24T23:13:44.689Z,9.33
2018-08-24T23:16:12.211Z,9.80
2018-08-24T23:18:39.732Z,9.47
2018-08-24T23:21:07.263Z,9.50
2018-08-24T23:23:34.809Z,8.97
2018-08-24T23:26:02.291Z,9.37
2018-08-24T23:28:29.827Z,9.20
2018-08-24T23:30:57.328Z,10.10
2018-08-24T23:33:24.831Z,9.70
2018-08-24T23:35:52.362Z,8.97
2018-08-24T23:38:19.901Z,9.97
2018-08-24T23:40:47.457Z,10.57
2018-08-24T23:43:15.021Z,9.80
2018-08-24T23:45:42.737Z,8.77
2018-08-24T23:48:10.257Z,10.33
2018-08-24T23:50:37.814Z,9.50
2018-08-24T23:53:05.352Z,9.33
2018-08-24T23:55:32.841Z,8.80
2018-08-24T23:58:00.385Z,9.43
